Time;durP1;ratioP1;P1;durP2;ratioP2;P2;SDS_P1;SDS_P2;PMS_P1;PMS_P2;Temp;Humidity;BMP_temperature;BMP_pressure;BME280_temperature;BME280_humidity;BME280_pressure;Samples;Min_cycle;Max_cycle;Signal;HPM_P1;HPM_P2
2022/02/16 00:01:17;;;;;;;4.37;3.87;;;2.40;99.90;3.10;96660.00;;;;5104613;28;20790;-82
2022/02/16 00:04:08;;;;;;;4.70;4.30;;;2.40;99.90;3.00;96654.00;;;;5111795;28;20441;-82
2022/02/16 00:06:56;;;;;;;5.67;5.07;;;2.40;99.90;3.20;96649.00;;;;5118368;28;20468;-82
2022/02/16 00:09:45;;;;;;;6.73;6.03;;;2.40;99.90;3.30;96647.00;;;;5111922;28;20430;-83
2022/02/16 00:12:34;;;;;;;5.60;5.10;;;2.40;99.90;3.40;96651.00;;;;5130786;27;20419;-82
2022/02/16 00:15:23;;;;;;;8.20;4.70;;;2.50;99.90;3.30;96647.00;;;;5127852;27;20440;-82
2022/02/16 00:18:14;;;;;;;4.87;4.47;;;2.50;99.90;3.00;96660.00;;;;5125044;28;20424;-82
2022/02/16 00:21:05;;;;;;;4.77;4.00;;;2.50;99.90;2.50;96654.00;;;;5125203;28;20428;-82
2022/02/16 00:23:54;;;;;;;4.77;4.27;;;2.40;99.90;2.50;96648.00;;;;5124781;28;20455;-83
2022/02/16 00:26:43;;;;;;;4.13;3.70;;;2.30;99.90;2.40;96650.00;;;;5122513;27;20434;-81
2022/02/16 00:29:31;;;;;;;4.27;3.87;;;2.20;99.90;2.30;96657.00;;;;5123340;28;20431;-83
2022/02/16 00:32:21;;;;;;;5.03;4.50;;;2.20;99.90;2.80;96650.00;;;;5122881;28;20429;-82
2022/02/16 00:35:09;;;;;;;4.20;3.80;;;2.20;99.90;3.00;96660.00;;;;5118845;28;20452;-83
2022/02/16 00:38:00;;;;;;;5.97;4.80;;;2.20;99.90;2.80;96654.00;;;;5123945;28;20467;-82
2022/02/16 00:40:48;;;;;;;6.93;4.80;;;2.20;99.90;2.70;96656.00;;;;5122551;28;20433;-82
2022/02/16 00:43:37;;;;;;;6.80;5.00;;;2.20;99.90;2.80;96658.00;;;;5123411;28;20436;-83
2022/02/16 00:46:26;;;;;;;7.60;4.27;;;1.90;99.90;2.90;96661.00;;;;5122781;28;20424;-83
2022/02/16 00:49:15;;;;;;;6.37;4.00;;;2.20;99.90;2.90;96665.00;;;;5121868;28;20425;-83
2022/02/16 00:52:05;;;;;;;6.47;4.77;;;2.20;99.90;3.00;96658.00;;;;5129712;27;20416;-83
2022/02/16 00:54:55;;;;;;;6.20;5.07;;;2.30;99.90;3.10;96666.00;;;;5132069;27;20439;-82
2022/02/16 00:57:44;;;;;;;5.40;4.80;;;2.30;99.90;3.20;96663.00;;;;5119089;28;20451;-81
2022/02/16 01:00:33;;;;;;;5.07;4.07;;;2.30;99.90;3.10;96660.00;;;;5124785;27;20424;-83
2022/02/16 01:03:22;;;;;;;5.80;4.50;;;2.40;99.90;2.80;96665.00;;;;5120275;28;20476;-83
2022/02/16 01:06:12;;;;;;;5.27;4.77;;;1.40;99.90;3.00;96659.00;;;;5120348;28;20460;-83
2022/02/16 01:09:01;;;;;;;5.20;4.37;;;2.30;99.90;3.00;96661.00;;;;5140005;27;21035;-82
2022/02/16 01:11:53;;;;;;;4.57;3.70;;;2.30;99.90;2.80;96653.00;;;;5133573;27;20444;-83
2022/02/16 01:14:42;;;;;;;4.77;4.27;;;2.30;99.90;2.70;96646.00;;;;5136005;27;20450;-83
2022/02/16 01:17:31;;;;;;;4.33;3.53;;;2.20;99.90;2.80;96654.00;;;;5139577;27;20435;-83
2022/02/16 01:20:20;;;;;;;4.60;4.13;;;2.20;99.90;2.60;96636.00;;;;5139710;27;20427;-82
2022/02/16 01:23:09;;;;;;;8.83;4.60;;;2.20;99.90;2.80;96644.00;;;;5137842;27;20442;-84
2022/02/16 01:25:57;;;;;;;4.13;3.73;;;2.10;99.90;2.90;96643.00;;;;5137204;27;20431;-84
2022/02/16 01:28:48;;;;;;;4.67;4.27;;;2.10;99.90;2.80;96635.00;;;;5138562;27;20468;-83
2022/02/16 01:31:36;;;;;;;7.30;5.00;;;2.20;99.90;3.10;96645.00;;;;5137294;27;20427;-83
2022/02/16 01:34:25;;;;;;;5.20;4.50;;;2.20;99.90;2.90;96635.00;;;;5136304;27;20444;-83
2022/02/16 01:37:14;;;;;;;4.63;3.70;;;2.20;99.90;2.40;96634.00;;;;5140019;27;20430;-82
2022/02/16 01:40:04;;;;;;;4.97;4.03;;;2.20;99.90;2.50;96626.00;;;;5139050;27;20534;-82
2022/02/16 01:42:54;;;;;;;4.20;3.83;;;2.10;99.90;2.30;96619.00;;;;5137147;27;20439;-82
2022/02/16 01:45:44;;;;;;;3.80;3.50;;;2.00;99.90;2.30;96632.00;;;;5143002;27;20451;-81
2022/02/16 01:48:33;;;;;;;6.20;3.90;;;2.00;99.90;2.30;96626.00;;;;5143195;27;20464;-82
2022/02/16 01:51:22;;;;;;;5.00;4.53;;;1.90;99.90;2.30;96620.00;;;;5122245;28;20960;-83
2022/02/16 01:54:11;;;;;;;5.00;4.53;;;1.90;99.90;2.30;96618.00;;;;5119778;28;20463;-82
2022/02/16 01:57:00;;;;;;;4.87;4.03;;;1.90;99.90;2.60;96618.00;;;;5120622;28;20436;-82
2022/02/16 01:59:50;;;;;;;6.00;5.23;;;1.90;99.90;2.80;96617.00;;;;5140046;27;20420;-81
2022/02/16 02:02:42;;;;;;;6.30;5.70;;;2.00;99.90;2.90;96616.00;;;;5139601;27;20430;-84
2022/02/16 02:05:30;;;;;;;5.10;4.60;;;2.00;99.90;2.80;96600.00;;;;5147544;27;20444;-83
2022/02/16 02:08:21;;;;;;;6.23;4.80;;;2.10;99.90;2.70;96612.00;;;;5148756;27;20455;-82
2022/02/16 02:11:10;;;;;;;5.13;4.13;;;2.10;99.90;2.60;96607.00;;;;5128709;27;20420;-82
2022/02/16 02:14:00;;;;;;;4.80;4.00;;;2.10;99.90;2.40;96619.00;;;;5128748;27;20455;-82
2022/02/16 02:16:49;;;;;;;3.57;3.27;;;2.00;99.90;2.40;96604.00;;;;5117853;28;20444;-82
2022/02/16 02:19:39;;;;;;;5.80;3.60;;;2.00;99.90;2.40;96596.00;;;;5129732;27;20424;-83
2022/02/16 02:22:29;;;;;;;5.33;4.27;;;1.90;99.90;2.30;96609.00;;;;5138400;27;20416;-82
2022/02/16 02:25:19;;;;;;;5.60;3.93;;;1.90;99.90;2.50;96611.00;;;;5135218;27;20441;-82
2022/02/16 02:28:08;;;;;;;5.43;4.40;;;1.90;99.90;2.70;96600.00;;;;5120001;28;20452;-83
2022/02/16 02:30:56;;;;;;;5.47;4.70;;;1.90;99.90;2.60;96609.00;;;;5118402;28;20417;-83
2022/02/16 02:33:45;;;;;;;4.30;3.90;;;1.90;99.90;2.60;96609.00;;;;5117707;28;20456;-83
2022/02/16 02:36:34;;;;;;;5.33;4.63;;;1.90;99.90;2.70;96609.00;;;;5110204;28;20433;-82
2022/02/16 02:39:25;;;;;;;6.43;3.87;;;2.00;99.90;2.70;96603.00;;;;5117935;28;20771;-83
2022/02/16 02:42:13;;;;;;;4.70;4.23;;;2.00;99.90;2.60;96599.00;;;;5115091;28;20964;-82
2022/02/16 02:45:04;;;;;;;4.90;4.40;;;2.00;99.90;2.80;96599.00;;;;5118781;28;20448;-81
2022/02/16 02:47:53;;;;;;;7.77;4.20;;;2.00;99.90;2.90;96611.00;;;;5117872;28;20425;-82
2022/02/16 02:50:41;;;;;;;6.57;5.60;;;2.00;99.90;3.00;96619.00;;;;5116510;28;20421;-81
2022/02/16 02:53:30;;;;;;;6.00;4.07;;;2.10;99.90;3.00;96608.00;;;;5110984;28;20930;-82
2022/02/16 02:56:21;;;;;;;5.97;4.00;;;2.10;99.90;2.70;96603.00;;;;5117014;28;20433;-82
2022/02/16 02:59:09;;;;;;;4.60;4.17;;;2.10;99.90;2.50;96596.00;;;;5119011;28;21047;-82
2022/02/16 03:01:58;;;;;;;5.40;3.60;;;2.10;99.90;2.50;96599.00;;;;5117063;28;20735;-83
2022/02/16 03:04:48;;;;;;;4.13;3.57;;;2.10;99.90;2.50;96603.00;;;;5116243;28;20449;-82
2022/02/16 03:07:37;;;;;;;5.67;4.83;;;2.00;99.90;2.70;96602.00;;;;5119680;27;20433;-81
2022/02/16 03:10:26;;;;;;;4.40;3.77;;;2.00;99.90;2.50;96609.00;;;;5124320;27;20425;-83
2022/02/16 03:13:22;;;;;;;4.10;3.70;;;2.00;99.90;2.40;96592.00;;;;5132761;27;20419;-82
2022/02/16 03:16:13;;;;;;;4.30;3.80;;;2.00;99.90;2.70;96606.00;;;;5112679;28;20447;-82
2022/02/16 03:19:02;;;;;;;4.10;3.43;;;2.00;99.90;2.60;96608.00;;;;5118524;28;20437;-82
2022/02/16 03:21:51;;;;;;;4.77;4.23;;;2.00;99.90;2.50;96594.00;;;;5118889;28;20429;-82
2022/02/16 03:24:40;;;;;;;4.77;4.13;;;2.00;99.90;2.60;96614.00;;;;5116702;28;21079;-82
2022/02/16 03:27:29;;;;;;;4.03;3.63;;;2.00;99.90;2.80;96612.00;;;;5104154;28;20433;-82
2022/02/16 03:30:19;;;;;;;4.40;4.00;;;2.00;99.90;2.90;96612.00;;;;5116932;28;20463;-83
2022/02/16 03:33:08;;;;;;;5.47;4.43;;;2.00;99.90;2.80;96606.00;;;;5117567;28;20420;-82
2022/02/16 03:35:56;;;;;;;5.60;3.90;;;2.00;99.90;2.80;96615.00;;;;5103053;28;20428;-82
2022/02/16 03:38:45;;;;;;;4.13;3.73;;;2.00;99.90;2.90;96617.00;;;;5116719;28;20421;-82
2022/02/16 03:41:34;;;;;;;5.80;4.57;;;2.10;99.90;2.90;96619.00;;;;5116231;28;20437;-82
2022/02/16 03:44:23;;;;;;;4.53;4.07;;;2.10;99.90;2.60;96606.00;;;;5105836;28;20448;-82
2022/02/16 03:47:13;;;;;;;4.17;3.77;;;2.10;99.90;2.20;96603.00;;;;5117736;28;20451;-82
2022/02/16 03:50:02;;;;;;;4.33;3.93;;;2.00;99.90;2.20;96609.00;;;;5120645;28;20476;-82
2022/02/16 03:52:51;;;;;;;4.10;3.60;;;1.90;99.90;2.50;96603.00;;;;5122525;28;20439;-82
2022/02/16 03:55:40;;;;;;;5.60;3.77;;;1.90;99.90;2.70;96596.00;;;;5121807;28;20467;-82
2022/02/16 03:58:29;;;;;;;3.83;3.53;;;2.00;99.90;2.50;96592.00;;;;5124004;28;20428;-82
2022/02/16 04:01:17;;;;;;;4.80;3.57;;;1.90;99.90;2.50;96593.00;;;;5121802;28;20421;-82
2022/02/16 04:04:08;;;;;;;3.80;3.40;;;1.90;99.90;2.50;96598.00;;;;5119390;28;20432;-82
2022/02/16 04:06:57;;;;;;;4.00;3.37;;;1.90;99.90;2.40;96602.00;;;;5118254;28;20435;-82
2022/02/16 04:09:45;;;;;;;4.07;3.57;;;1.80;99.90;2.30;96595.00;;;;5109857;28;20452;-82
2022/02/16 04:12:35;;;;;;;4.63;3.53;;;1.80;99.90;2.50;96597.00;;;;5126563;27;20434;-83
2022/02/16 04:15:24;;;;;;;4.13;3.73;;;1.80;99.90;2.30;96591.00;;;;5122704;27;20447;-81
2022/02/16 04:18:12;;;;;;;4.10;3.70;;;1.80;99.90;2.20;96590.00;;;;5118224;28;20432;-82
2022/02/16 04:21:03;;;;;;;4.57;4.10;;;1.80;99.90;2.30;96588.00;;;;5107941;28;20431;-82
2022/02/16 04:23:52;;;;;;;4.40;4.00;;;1.80;99.90;2.40;96590.00;;;;5119840;27;20470;-81
2022/02/16 04:26:41;;;;;;;3.63;3.33;;;1.80;99.90;2.50;96586.00;;;;5120560;27;20424;-83
2022/02/16 04:29:30;;;;;;;5.17;3.83;;;1.80;99.90;2.40;96585.00;;;;5120907;28;20460;-81
2022/02/16 04:32:19;;;;;;;4.40;3.53;;;1.80;99.90;2.10;96583.00;;;;5107905;28;20416;-83
2022/02/16 04:35:09;;;;;;;6.60;5.27;;;1.70;99.90;2.40;96582.00;;;;5121474;28;20451;-82
2022/02/16 04:37:59;;;;;;;6.03;3.87;;;1.80;99.90;2.50;96579.00;;;;5121108;28;20436;-81
2022/02/16 04:40:48;;;;;;;5.00;3.83;;;1.80;99.90;2.40;96586.00;;;;5120767;28;20432;-82
2022/02/16 04:43:37;;;;;;;5.00;4.10;;;1.80;99.90;2.30;96587.00;;;;5120276;28;20436;-82
2022/02/16 04:46:25;;;;;;;4.73;3.80;;;1.80;99.90;2.30;96589.00;;;;5120072;28;20425;-82
2022/02/16 04:49:14;;;;;;;3.77;3.47;;;1.80;99.90;1.90;96595.00;;;;5121871;28;20477;-82
2022/02/16 04:52:04;;;;;;;3.87;3.43;;;1.70;99.90;1.80;96587.00;;;;5120987;28;20433;-82
2022/02/16 04:54:54;;;;;;;4.53;4.03;;;1.60;99.90;2.00;96579.00;;;;5119439;28;20455;-82
2022/02/16 04:57:43;;;;;;;3.93;3.33;;;1.60;99.90;2.00;96585.00;;;;5116351;28;20444;-81
2022/02/16 05:00:32;;;;;;;3.30;3.00;;;1.60;99.90;2.00;96592.00;;;;5121237;28;20436;-82
2022/02/16 05:03:21;;;;;;;3.47;2.83;;;1.60;99.90;2.00;96596.00;;;;5120924;27;20444;-83
2022/02/16 05:06:10;;;;;;;3.17;2.87;;;1.60;99.90;2.20;96599.00;;;;5125948;27;20468;-82
2022/02/16 05:08:58;;;;;;;4.47;4.07;;;1.60;99.90;2.20;96601.00;;;;5133660;27;20425;-83
2022/02/16 05:11:49;;;;;;;4.37;3.77;;;1.60;99.90;2.10;96588.00;;;;5115632;27;20421;-83
2022/02/16 05:14:38;;;;;;;4.97;4.00;;;1.60;99.90;2.20;96588.00;;;;5117629;28;20432;-83
2022/02/16 05:17:27;;;;;;;5.33;4.40;;;1.60;99.90;2.20;96579.00;;;;5118234;28;20421;-81
2022/02/16 05:20:16;;;;;;;3.57;3.07;;;1.70;99.90;2.00;96583.00;;;;5127605;27;20424;-81
2022/02/16 05:23:05;;;;;;;4.10;3.20;;;1.60;99.90;2.20;96597.00;;;;5132731;27;20438;-81
2022/02/16 05:25:54;;;;;;;3.30;3.00;;;1.60;99.90;2.00;96597.00;;;;5108329;27;20875;-81
2022/02/16 05:28:45;;;;;;;3.67;3.37;;;1.60;99.90;1.90;96592.00;;;;5117826;28;20421;-82
2022/02/16 05:31:34;;;;;;;3.43;3.13;;;1.50;99.90;2.10;96601.00;;;;5115929;28;20457;-82
2022/02/16 05:34:23;;;;;;;3.73;3.33;;;1.50;99.90;2.30;96601.00;;;;5118335;27;20452;-81
2022/02/16 05:37:13;;;;;;;3.63;3.23;;;1.60;99.90;2.40;96601.00;;;;5134608;27;20413;-81
2022/02/16 05:40:03;;;;;;;3.83;3.43;;;1.50;99.90;2.10;96595.00;;;;5124550;27;20421;-81
2022/02/16 05:42:53;;;;;;;3.63;3.33;;;1.60;99.90;2.00;96594.00;;;;5122701;27;20434;-80
2022/02/16 05:45:45;;;;;;;4.83;3.40;;;1.50;99.90;2.10;96599.00;;;;5139154;27;20458;-81
2022/02/16 05:48:34;;;;;;;4.33;3.47;;;1.50;99.90;2.10;96599.00;;;;5120885;28;20428;-81
2022/02/16 05:51:23;;;;;;;4.10;3.33;;;1.50;99.90;2.10;96594.00;;;;5120272;28;21013;-81
2022/02/16 05:54:11;;;;;;;3.40;3.10;;;1.50;99.90;2.20;96592.00;;;;5121781;28;20444;-82
2022/02/16 05:57:03;;;;;;;3.17;2.70;;;1.50;99.90;2.00;96595.00;;;;5122003;28;20448;-81
2022/02/16 05:59:52;;;;;;;5.70;3.83;;;1.50;99.90;1.90;96602.00;;;;5111924;28;20427;-83
2022/02/16 06:02:42;;;;;;;8.00;5.80;;;1.50;99.90;1.90;96597.00;;;;5115989;27;20440;-82
2022/02/16 06:05:32;;;;;;;11.40;7.47;;;1.60;99.90;2.00;96605.00;;;;5114153;27;20447;-82
2022/02/16 06:08:22;;;;;;;12.23;8.27;;;1.50;99.90;1.80;96617.00;;;;5139386;27;20453;-83
2022/02/16 06:11:12;;;;;;;9.00;6.47;;;1.50;99.90;2.20;96620.00;;;;5118117;28;20471;-81
2022/02/16 06:14:01;;;;;;;11.67;6.37;;;1.50;99.90;2.20;96631.00;;;;5119148;28;20443;-81
2022/02/16 06:16:50;;;;;;;6.13;4.93;;;1.60;99.90;2.30;96633.00;;;;5116972;28;20423;-81
2022/02/16 06:19:40;;;;;;;5.73;4.63;;;1.60;99.90;2.10;96622.00;;;;5132259;27;20989;-81
2022/02/16 06:22:28;;;;;;;5.10;3.90;;;1.60;99.90;2.10;96633.00;;;;5108576;28;20417;-82
2022/02/16 06:25:17;;;;;;;4.00;3.60;;;1.50;99.90;2.00;96627.00;;;;5120368;27;20458;-83
2022/02/16 06:28:06;;;;;;;8.77;5.37;;;1.60;99.90;2.10;96627.00;;;;5126357;27;20442;-81
2022/02/16 06:30:55;;;;;;;13.80;7.50;;;3.10;99.90;2.30;96633.00;;;;5138932;27;20474;-81
2022/02/16 06:33:44;;;;;;;11.43;7.80;;;1.60;99.90;2.10;96643.00;;;;5136748;27;20431;-82
2022/02/16 06:36:34;;;;;;;9.17;7.87;;;1.60;99.90;2.20;96633.00;;;;5137812;27;20428;-81
2022/02/16 06:39:23;;;;;;;8.93;6.67;;;1.80;99.90;1.80;96641.00;;;;5131829;27;20429;-82
2022/02/16 06:42:12;;;;;;;9.77;6.50;;;1.60;99.90;2.00;96627.00;;;;5141540;27;20431;-82
2022/02/16 06:45:01;;;;;;;11.97;6.70;;;1.80;99.90;1.60;96634.00;;;;5131482;27;20441;-81
2022/02/16 06:47:50;;;;;;;8.67;6.67;;;1.50;99.90;1.60;96643.00;;;;5134926;27;20803;-81
2022/02/16 06:50:39;;;;;;;12.93;7.63;;;1.50;99.90;2.00;96639.00;;;;5120744;27;20469;-81
2022/02/16 06:53:30;;;;;;;12.00;8.27;;;1.50;99.90;1.90;96640.00;;;;5108865;27;20444;-82
2022/02/16 06:56:19;;;;;;;7.17;5.90;;;1.50;99.90;1.60;96637.00;;;;5116203;27;20445;-83
2022/02/16 06:59:07;;;;;;;14.23;9.60;;;1.50;99.90;1.40;96642.00;;;;5114053;27;20459;-83
2022/02/16 07:01:56;;;;;;;11.40;7.53;;;1.50;99.90;1.70;96646.00;;;;5107636;27;20437;-83
2022/02/16 07:04:45;;;;;;;12.23;10.00;;;1.40;99.90;1.70;96641.00;;;;5103902;27;20476;-82
2022/02/16 07:07:34;;;;;;;9.93;8.33;;;1.40;99.90;1.70;96633.00;;;;5110306;27;20435;-81
2022/02/16 07:10:25;;;;;;;8.03;6.47;;;1.40;99.90;1.60;96640.00;;;;5109245;27;20495;-82
2022/02/16 07:13:14;;;;;;;8.50;6.73;;;1.40;99.90;1.60;96633.00;;;;5108965;27;20506;-82
2022/02/16 07:16:04;;;;;;;12.03;7.40;;;1.40;99.90;1.70;96642.00;;;;5108555;27;20443;-82
2022/02/16 07:18:52;;;;;;;10.67;7.67;;;1.40;99.90;1.90;96642.00;;;;5107612;27;20427;-83
2022/02/16 07:21:44;;;;;;;9.87;6.47;;;1.90;99.90;1.70;96644.00;;;;5107850;28;20430;-82
2022/02/16 07:24:32;;;;;;;7.27;5.37;;;1.50;99.90;1.80;96652.00;;;;5113668;28;20457;-83
2022/02/16 07:27:23;;;;;;;5.33;4.37;;;1.50;99.90;1.70;96642.00;;;;5108636;28;20453;-82
2022/02/16 07:30:14;;;;;;;9.10;4.57;;;1.50;99.90;1.70;96648.00;;;;5109158;28;20429;-83
2022/02/16 07:33:03;;;;;;;4.53;4.13;;;1.50;99.90;1.60;96646.00;;;;5115831;28;20432;-82
2022/02/16 07:35:52;;;;;;;5.30;4.13;;;1.50;99.90;1.60;96649.00;;;;5118483;28;20447;-82
2022/02/16 07:38:41;;;;;;;9.87;6.33;;;1.40;99.90;1.80;96653.00;;;;5101668;28;20637;-82
2022/02/16 07:41:30;;;;;;;7.97;6.30;;;2.30;99.90;1.70;96647.00;;;;5104858;28;20437;-81
2022/02/16 07:44:20;;;;;;;6.60;5.37;;;1.50;99.90;1.70;96650.00;;;;5109405;28;20472;-83
2022/02/16 07:47:09;;;;;;;7.30;5.47;;;1.50;99.90;1.70;96645.00;;;;5120770;28;20447;-82
2022/02/16 07:49:59;;;;;;;5.97;4.87;;;1.50;99.90;1.60;96649.00;;;;5110684;28;20429;-83
2022/02/16 07:52:47;;;;;;;5.73;4.87;;;1.60;99.90;1.90;96654.00;;;;5109016;28;20431;-82
2022/02/16 07:55:36;;;;;;;9.60;4.90;;;1.60;99.90;1.90;96652.00;;;;5107004;28;20456;-82
2022/02/16 07:58:25;;;;;;;7.43;5.37;;;1.70;99.90;2.30;96662.00;;;;5108777;28;20440;-82
2022/02/16 08:01:15;;;;;;;8.70;6.53;;;1.70;99.90;2.60;96651.00;;;;5108019;28;20448;-82
2022/02/16 08:04:17;;;;;;;10.93;7.57;;;1.80;99.90;2.70;96650.00;;;;5108147;28;20461;-81
2022/02/16 08:07:06;;;;;;;9.30;6.70;;;1.90;99.90;2.50;96648.00;;;;5105990;28;20437;-83
2022/02/16 08:09:54;;;;;;;13.30;9.37;;;2.00;99.90;2.60;96635.00;;;;5107507;28;20445;-83
2022/02/16 08:12:48;;;;;;;13.33;9.30;;;2.10;99.90;2.60;96629.00;;;;5124278;28;20456;-83
2022/02/16 08:15:37;;;;;;;14.40;10.33;;;2.20;99.90;2.60;96641.00;;;;5126090;28;20465;-83
2022/02/16 08:18:27;;;;;;;9.67;8.23;;;2.30;99.90;2.80;96643.00;;;;5124235;28;20431;-82
2022/02/16 08:21:16;;;;;;;10.77;8.37;;;2.30;99.90;2.90;96644.00;;;;5123773;27;20456;-86
2022/02/16 08:24:07;;;;;;;11.40;8.23;;;2.40;99.90;3.20;96631.00;;;;5128072;27;20455;-82
2022/02/16 08:26:56;;;;;;;9.60;8.50;;;2.60;99.90;3.50;96632.00;;;;5124872;28;20440;-82
2022/02/16 08:29:45;;;;;;;10.20;7.87;;;2.70;99.90;3.30;96632.00;;;;5120290;28;20429;-82
2022/02/16 08:32:34;;;;;;;10.33;7.13;;;2.80;99.90;2.80;96622.00;;;;5134626;28;20474;-82
2022/02/16 08:35:26;;;;;;;11.77;8.27;;;2.90;99.90;3.40;96629.00;;;;5129963;27;20459;-81
2022/02/16 08:38:14;;;;;;;13.60;10.10;;;2.90;99.90;3.60;96614.00;;;;5132579;27;20430;-82
2022/02/16 08:41:04;;;;;;;11.97;9.97;;;3.10;99.90;4.00;96613.00;;;;5130513;27;20429;-83
2022/02/16 08:43:53;;;;;;;10.40;7.83;;;3.20;99.90;4.00;96612.00;;;;5131364;27;20482;-82
2022/02/16 08:46:42;;;;;;;10.40;8.83;;;3.40;99.90;4.10;96613.00;;;;5128658;27;20668;-82
2022/02/16 08:49:31;;;;;;;11.30;8.10;;;3.60;99.90;4.50;96613.00;;;;5126861;27;20438;-83
2022/02/16 08:52:21;;;;;;;12.23;10.10;;;3.70;99.90;4.90;96607.00;;;;5124260;27;20460;-81
2022/02/16 08:55:10;;;;;;;12.80;10.50;;;3.80;99.90;5.10;96608.00;;;;5136167;27;20448;-79
2022/02/16 08:57:59;;;;;;;14.77;10.20;;;4.20;99.90;6.00;96608.00;;;;5124309;27;20210;-80
2022/02/16 09:00:48;;;;;;;11.97;10.70;;;4.50;99.90;5.90;96620.00;;;;5122660;27;20215;-80
2022/02/16 09:03:37;;;;;;;11.17;10.00;;;4.70;99.90;6.20;96609.00;;;;5124735;27;20265;-78
2022/02/16 09:06:26;;;;;;;14.40;9.73;;;5.00;99.90;6.10;96599.00;;;;5125456;27;20202;-82
2022/02/16 09:09:17;;;;;;;13.43;10.10;;;5.10;99.90;6.50;96602.00;;;;5121975;27;20199;-82
2022/02/16 09:12:08;;;;;;;12.17;8.80;;;5.30;99.90;7.00;96598.00;;;;5117502;27;20246;-81
2022/02/16 09:14:58;;;;;;;10.93;8.70;;;5.50;99.90;7.00;96595.00;;;;5122042;27;20226;-81
2022/02/16 09:17:47;;;;;;;8.73;7.43;;;5.70;99.90;7.20;96604.00;;;;5120340;27;20209;-80
2022/02/16 09:20:36;;;;;;;8.67;7.37;;;5.90;99.90;7.30;96602.00;;;;5124168;27;20224;-82
2022/02/16 09:23:25;;;;;;;9.23;7.93;;;6.00;99.90;7.70;96597.00;;;;5119777;27;20212;-82
2022/02/16 09:26:16;;;;;;;9.63;8.63;;;6.20;99.90;7.40;96596.00;;;;5120977;27;20202;-83
2022/02/16 09:29:05;;;;;;;9.73;8.47;;;6.30;99.90;7.50;96591.00;;;;5120786;27;20668;-82
2022/02/16 09:31:54;;;;;;;11.27;9.23;;;6.30;99.90;7.70;96595.00;;;;5122670;27;20230;-82
2022/02/16 09:34:45;;;;;;;9.37;7.20;;;6.50;99.90;7.50;96580.00;;;;5129184;27;20230;-81
2022/02/16 09:37:33;;;;;;;7.67;6.87;;;6.50;99.90;7.80;96580.00;;;;5130838;27;20201;-83
2022/02/16 09:40:22;;;;;;;10.03;8.50;;;6.60;99.90;7.60;96577.00;;;;5128075;27;20213;-81
2022/02/16 09:43:17;;;;;;;8.93;7.37;;;6.60;99.90;7.90;96572.00;;;;5135292;27;20198;-82
2022/02/16 09:46:06;;;;;;;10.47;8.37;;;6.70;99.90;7.70;96568.00;;;;5127423;27;20199;-82
2022/02/16 09:48:56;;;;;;;12.37;8.97;;;6.70;99.90;7.50;96564.00;;;;5133444;27;20204;-83
2022/02/16 09:51:45;;;;;;;11.60;8.73;;;6.70;99.90;8.10;96555.00;;;;5125151;27;20597;-81
2022/02/16 09:54:34;;;;;;;8.93;8.00;;;6.70;99.90;8.40;96559.00;;;;5128622;27;20226;-82
2022/02/16 09:57:22;;;;;;;9.30;8.23;;;6.90;99.90;8.30;96552.00;;;;5127299;27;20220;-82
2022/02/16 10:00:16;;;;;;;8.60;7.70;;;7.00;99.90;8.30;96552.00;;;;5126296;27;20198;-83
2022/02/16 10:03:13;;;;;;;10.73;8.67;;;7.00;99.90;8.70;96553.00;;;;5128078;27;20221;-82
2022/02/16 10:06:02;;;;;;;10.10;7.97;;;7.20;99.90;8.80;96544.00;;;;5127160;27;20197;-83
2022/02/16 10:08:51;;;;;;;10.03;9.00;;;7.30;99.90;8.90;96534.00;;;;5127574;27;20845;-82
2022/02/16 10:11:52;;;;;;;9.53;8.53;;;7.40;99.90;8.30;96528.00;;;;5120409;27;20262;-83
2022/02/16 10:14:41;;;;;;;8.97;8.07;;;7.50;99.90;8.70;96525.00;;;;5120790;27;20229;-82
2022/02/16 10:17:32;;;;;;;10.20;7.73;;;7.50;99.90;8.90;96526.00;;;;5119244;27;20198;-83
2022/02/16 10:20:22;;;;;;;9.87;8.83;;;7.60;99.90;9.30;96528.00;;;;5124649;27;20425;-83
2022/02/16 10:23:11;;;;;;;9.53;8.47;;;7.70;99.90;9.50;96531.00;;;;5116872;27;20207;-82
2022/02/16 10:26:01;;;;;;;8.80;6.80;;;7.80;99.90;9.80;96541.00;;;;5122034;27;20747;-83
2022/02/16 10:28:54;;;;;;;8.77;7.87;;;8.00;99.90;9.80;96524.00;;;;5122799;27;20586;-82
2022/02/16 10:31:43;;;;;;;8.47;7.33;;;8.20;99.90;10.30;96527.00;;;;5126021;27;20670;-82
2022/02/16 10:34:52;;;;;;;9.47;7.50;;;8.40;99.90;10.10;96512.00;;;;5113098;27;20218;-83
2022/02/16 10:37:41;;;;;;;9.30;7.43;;;8.60;99.90;10.30;96517.00;;;;5104712;27;20214;-83
2022/02/16 10:40:31;;;;;;;7.90;7.07;;;8.70;99.90;10.90;96517.00;;;;5098751;27;20203;-83
2022/02/16 10:43:33;;;;;;;6.93;6.03;;;8.90;99.90;11.30;96505.00;;;;5104812;27;20217;-82
2022/02/16 10:46:25;;;;;;;6.83;6.07;;;9.20;99.90;11.40;96503.00;;;;5106093;27;20201;-82
2022/02/16 10:49:16;;;;;;;7.10;6.10;;;9.60;99.90;12.10;96500.00;;;;5108954;27;20239;-81
2022/02/16 10:52:27;;;;;;;7.40;5.90;;;10.00;99.90;12.00;96499.00;;;;5108264;27;20226;-81
2022/02/16 10:55:16;;;;;;;6.53;5.23;;;10.50;99.90;12.70;96495.00;;;;5130234;27;20870;-82
2022/02/16 10:58:06;;;;;;;5.20;4.70;;;10.90;99.90;13.30;96493.00;;;;5132981;27;20221;-82
2022/02/16 11:00:57;;;;;;;6.33;4.87;;;11.20;99.90;14.00;96474.00;;;;5129599;27;20202;-82
2022/02/16 11:03:50;;;;;;;7.33;4.27;;;11.60;99.90;13.90;96469.00;;;;5115108;27;20230;-83
2022/02/16 11:06:44;;;;;;;6.00;5.23;;;12.10;99.90;13.60;96463.00;;;;5132569;27;20213;-82
2022/02/16 11:09:41;;;;;;;6.83;5.70;;;12.40;99.90;13.40;96443.00;;;;5129168;27;20210;-81
2022/02/16 11:12:30;;;;;;;5.70;4.67;;;12.60;99.90;14.40;96445.00;;;;5099899;28;20200;-82
2022/02/16 11:15:20;;;;;;;5.63;4.30;;;12.80;99.90;15.20;96439.00;;;;5102407;27;20228;-82
2022/02/16 11:18:14;;;;;;;8.50;4.67;;;13.10;99.90;15.20;96431.00;;;;5119962;28;20276;-81
2022/02/16 11:21:09;;;;;;;5.60;5.10;;;13.50;99.90;14.70;96421.00;;;;5116827;27;20203;-82
2022/02/16 11:24:00;;;;;;;6.33;5.13;;;13.70;99.90;14.50;96415.00;;;;5095944;28;20249;-83
2022/02/16 11:26:51;;;;;;;8.43;4.80;;;13.90;98.50;13.60;96398.00;;;;5109431;28;20193;-82
2022/02/16 11:29:44;;;;;;;6.67;5.10;;;13.80;96.00;14.50;96403.00;;;;5101013;28;20213;-83
2022/02/16 11:32:36;;;;;;;7.87;5.73;;;13.80;95.50;15.20;96401.00;;;;5125598;27;20212;-82
2022/02/16 11:35:29;;;;;;;9.53;5.77;;;13.90;96.30;15.70;96397.00;;;;5123485;27;20225;-81
2022/02/16 11:38:20;;;;;;;6.90;5.53;;;14.00;96.60;15.70;96400.00;;;;5129703;28;20206;-81
2022/02/16 11:41:21;;;;;;;8.40;6.53;;;14.30;96.20;15.30;96398.00;;;;5096670;28;20200;-83
2022/02/16 11:44:13;;;;;;;7.00;4.83;;;14.40;94.70;15.60;96398.00;;;;5107219;28;20673;-81
2022/02/16 11:47:02;;;;;;;7.27;5.30;;;14.40;94.00;14.30;96389.00;;;;5106574;28;20284;-82
2022/02/16 11:49:51;;;;;;;8.47;5.33;;;14.50;91.50;13.90;96390.00;;;;5104071;28;20482;-82
2022/02/16 11:52:43;;;;;;;5.77;4.67;;;14.50;90.90;14.70;96392.00;;;;5105212;28;20198;-81
2022/02/16 11:55:36;;;;;;;7.80;5.70;;;14.60;90.70;14.70;96392.00;;;;5093441;28;20223;-82
2022/02/16 11:58:25;;;;;;;6.23;5.67;;;14.70;89.10;13.30;96370.00;;;;5103266;28;20293;-82
2022/02/16 12:01:19;;;;;;;6.43;5.83;;;14.50;87.30;13.10;96357.00;;;;5103831;28;20205;-80
2022/02/16 12:04:08;;;;;;;6.70;5.43;;;14.20;86.20;13.10;96393.00;;;;5094776;28;20686;-81
2022/02/16 12:07:24;;;;;;;5.73;4.60;;;13.60;87.40;11.60;96334.00;;;;5093726;28;20201;-82
2022/02/16 12:10:16;;;;;;;7.53;4.87;;;13.40;87.40;13.10;96380.00;;;;5098614;27;21039;-81
2022/02/16 12:13:07;;;;;;;14.70;5.70;;;13.20;89.40;13.80;96347.00;;;;5102321;28;20225;-81
2022/02/16 12:16:07;;;;;;;11.83;5.10;;;13.00;90.40;14.00;96341.00;;;;5098715;27;20215;-81
2022/02/16 12:19:01;;;;;;;6.30;5.47;;;13.00;90.80;14.30;96323.00;;;;5103740;27;20572;-82
2022/02/16 12:21:52;;;;;;;5.87;5.37;;;13.20;91.00;13.60;96318.00;;;;5097018;27;20656;-82
2022/02/16 12:24:41;;;;;;;9.40;5.10;;;13.30;90.90;15.00;96332.00;;;;5099418;27;20241;-82
2022/02/16 12:27:30;;;;;;;10.53;6.43;;;13.40;91.30;16.10;96327.00;;;;5124027;27;20202;-82
2022/02/16 12:30:19;;;;;;;6.20;5.33;;;14.00;91.40;14.90;96322.00;;;;5114859;27;20202;-81
2022/02/16 12:33:21;;;;;;;5.37;4.87;;;14.90;87.60;14.20;96311.00;;;;5118554;27;20218;-81
2022/02/16 12:36:11;;;;;;;7.00;5.00;;;15.10;83.40;16.60;96372.00;;;;5122936;27;20556;-82
2022/02/16 12:39:04;;;;;;;9.37;5.30;;;15.10;85.50;16.40;96341.00;;;;5121184;27;20205;-82
2022/02/16 12:41:53;;;;;;;4.90;4.50;;;15.30;84.20;16.80;96315.00;;;;5119483;27;20714;-82
2022/02/16 12:44:42;;;;;;;6.47;4.90;;;15.90;81.00;16.50;96318.00;;;;5120483;27;20316;-82
2022/02/16 12:47:31;;;;;;;4.07;3.77;;;16.30;77.30;15.30;96312.00;;;;5120977;27;20638;-83